»·PEaware :: SWA1141 KSAN-KPHX

SWA1141 :: KSAN-KPHX

FLIGHT INFORMATION

Flight Status: Arrived
Operator:
Southwest Airlines
More flights by this operator :: More flights under this callsign
Pilot: Maximilliano F. (23467)
Aircraft: BOEING 737-800
(B738)
More flights by this aircraft type
Origin: KSAN San Diego Intl-Lindbergh
United States
Destination: KPHX Phoenix Sky Harbor Intl
United States
More flights between these airports :: More routes between these airports
Route: +ZZOOO2 IPL J18 BZA HOGGZ HYDRR1
File this flight plan on PilotEdge
Remarks: RMK / SIMBRIEF
Altitude:
(Current/Filed)
29,000ft
Speed:
(Current/Filed)
446kts
Departed: 09-Oct-19 09:00 PM
Arrived: 09-Oct-19 09:54 PM
Distance/Time
Traveled:
264nm/0:53
Distance/Time
To Go:
Arrived

Flight Plot

Page will automatically refresh every two minutes.

Flight plan parsing failed; only flown route is shown


Map Options




Map Legend


Flown Route
Filed Route
Departure Airport
Arrival Airport
Navaid (VOR, NDB)
Fix

Horizontal Profiles

Position Reports

Time Latitude Longitude Heading Altitude Ground
Speed
09-Oct-19 20:36 32.731852 -117.195861 247 21ft 0kts
09-Oct-19 20:37 32.731852 -117.195861 247 21ft 0kts
09-Oct-19 20:38 32.731852 -117.195861 247 21ft 0kts
09-Oct-19 20:39 32.731852 -117.195861 247 21ft 0kts
09-Oct-19 20:40 32.731852 -117.195861 247 21ft 0kts
09-Oct-19 20:41 32.731852 -117.195861 247 21ft 0kts
09-Oct-19 20:42 32.731852 -117.195861 247 21ft 0kts
09-Oct-19 20:43 32.731852 -117.195861 247 21ft 0kts
09-Oct-19 20:44 32.731852 -117.195861 247 21ft 0kts
09-Oct-19 20:45 32.731852 -117.195861 247 21ft 0kts
09-Oct-19 20:46 32.731852 -117.195861 247 21ft 0kts
09-Oct-19 20:47 32.731852 -117.195861 247 21ft 0kts
09-Oct-19 20:48 32.731852 -117.195861 247 21ft 0kts
09-Oct-19 20:49 32.731852 -117.195861 247 21ft 0kts
09-Oct-19 20:50 32.731873 -117.195482 297 21ft 2kts
09-Oct-19 20:51 32.731615 -117.195250 344 21ft 0kts
09-Oct-19 20:52 32.731616 -117.195250 344 21ft 0kts
09-Oct-19 20:53 32.731825 -117.195290 2 21ft 3kts
09-Oct-19 20:54 32.733420 -117.193862 69 21ft 11kts
09-Oct-19 20:55 32.731855 -117.186891 104 20ft 30kts
09-Oct-19 20:56 32.729650 -117.177821 106 22ft 25kts
09-Oct-19 20:57 32.729507 -117.176715 73 23ft 0kts
09-Oct-19 20:58 32.729678 -117.176110 70 25ft 10kts
09-Oct-19 20:59 32.734429 -117.193295 286 58ft 173kts
09-Oct-19 21:00 32.750469 -117.253202 285 2643ft 226kts
09-Oct-19 21:01 32.736595 -117.323480 201 5972ft 270kts
09-Oct-19 21:03 32.668673 -117.284664 140 9650ft 297kts
09-Oct-19 21:04 32.611735 -117.204368 98 12550ft 339kts
09-Oct-19 21:05 32.606310 -117.087211 82 15482ft 372kts
09-Oct-19 21:06 32.605440 -116.961976 92 18717ft 392kts
09-Oct-19 21:07 32.616213 -116.831727 72 21541ft 408kts
09-Oct-19 21:08 32.646194 -116.700081 82 23645ft 424kts
09-Oct-19 21:09 32.650982 -116.557254 81 25919ft 445kts
09-Oct-19 21:10 32.665983 -116.407233 81 27913ft 471kts
09-Oct-19 21:11 32.681058 -116.249310 82 28952ft 507kts
09-Oct-19 21:12 32.696712 -116.082886 82 28906ft 508kts
09-Oct-19 21:13 32.712012 -115.915420 82 28769ft 512kts
09-Oct-19 21:14 32.727461 -115.747481 82 28755ft 510kts
09-Oct-19 21:15 32.742709 -115.579159 82 28758ft 510kts
09-Oct-19 21:16 32.751406 -115.410941 87 28760ft 511kts
09-Oct-19 21:17 32.755242 -115.245027 87 28749ft 511kts
09-Oct-19 21:18 32.759038 -115.076164 88 28755ft 512kts
09-Oct-19 21:19 32.762410 -114.906802 88 28762ft 512kts
09-Oct-19 21:20 32.765737 -114.737772 88 28765ft 512kts
09-Oct-19 21:21 32.768743 -114.568786 88 28767ft 512kts
09-Oct-19 21:21 32.770586 -114.428041 88 28769ft 512kts
09-Oct-19 21:23 32.772981 -114.248716 88 27218ft 484kts
09-Oct-19 21:24 32.774779 -114.094395 88 25107ft 452kts
09-Oct-19 21:24 32.785843 -113.969286 81 24783ft 467kts
09-Oct-19 21:25 32.802679 -113.816720 81 24772ft 465kts
09-Oct-19 21:27 32.849246 -113.652263 52 24778ft 446kts
09-Oct-19 21:27 32.913363 -113.558061 43 24775ft 440kts
09-Oct-19 21:28 32.994501 -113.448875 43 24775ft 440kts
09-Oct-19 21:30 33.088198 -113.322115 43 24768ft 440kts
09-Oct-19 21:30 33.153658 -113.233599 43 24769ft 439kts
09-Oct-19 21:31 33.231715 -113.124729 52 22607ft 426kts
09-Oct-19 21:32 33.273321 -112.994984 80 20162ft 416kts
09-Oct-19 21:33 33.279589 -112.863257 87 18761ft 374kts
09-Oct-19 21:34 33.287924 -112.742455 81 16901ft 357kts
09-Oct-19 21:35 33.298910 -112.626227 82 15079ft 343kts
09-Oct-19 21:36 33.309177 -112.516014 83 13638ft 332kts
09-Oct-19 21:37 33.319425 -112.404881 83 12173ft 339kts
09-Oct-19 21:38 33.329415 -112.294710 84 10725ft 324kts
09-Oct-19 21:39 33.338700 -112.192668 85 9627ft 291kts
09-Oct-19 21:40 33.346772 -112.103055 86 8773ft 260kts
09-Oct-19 21:41 33.346603 -112.017106 94 7320ft 255kts
09-Oct-19 21:42 33.344939 -111.933385 93 5965ft 249kts
09-Oct-19 21:43 33.343146 -111.851417 93 5063ft 244kts
09-Oct-19 21:44 33.341053 -111.770307 93 5040ft 243kts
09-Oct-19 21:45 33.342582 -111.689551 60 5020ft 245kts
09-Oct-19 21:46 33.403027 -111.676206 349 3841ft 232kts
09-Oct-19 21:47 33.465067 -111.691380 312 3026ft 223kts
09-Oct-19 21:48 33.466855 -111.762455 259 3041ft 219kts
09-Oct-19 21:49 33.449378 -111.825873 234 3046ft 183kts
09-Oct-19 21:50 33.425612 -111.874857 277 3071ft 174kts
09-Oct-19 21:51 33.428665 -111.932858 269 2278ft 158kts
09-Oct-19 21:52 33.428785 -111.983561 270 1433ft 154kts
09-Oct-19 21:53 33.428904 -112.019980 272 1139ft 38kts
09-Oct-19 21:54 33.429966 -112.023536 269 1139ft 7kts
09-Oct-19 21:55 33.431548 -112.025405 14 1139ft 11kts
09-Oct-19 21:56 33.432879 -112.021292 90 1139ft 18kts
09-Oct-19 21:57 33.432874 -112.014309 89 1139ft 20kts
09-Oct-19 21:58 33.432869 -112.007640 90 1139ft 19kts
09-Oct-19 21:59 33.432828 -112.001378 90 1139ft 18kts
09-Oct-19 22:00 33.433638 -111.998260 359 1139ft 3kts
09-Oct-19 22:01 33.434042 -111.998739 289 1139ft 0kts
09-Oct-19 22:02 33.434042 -111.998739 289 1139ft 0kts
09-Oct-19 22:03 33.434042 -111.998739 289 1139ft 0kts
09-Oct-19 22:04 33.434042 -111.998739 289 1139ft 0kts
09-Oct-19 22:05 33.434042 -111.998739 289 1139ft 0kts
09-Oct-19 22:06 33.434042 -111.998739 289 1139ft 0kts
09-Oct-19 22:07 33.434042 -111.998739 289 1139ft 0kts

Navigation Log

Ident Type
Flight plan parsing failed, navigation log unavailable